Paranhos, Brazil
Current Conditions -  °F | °C
As of 1:00 PM on Sunday 21 Dec 2014 (Local Time) from SBPP Reporting Station
Broken Clouds Broken Clouds  
Wind Chill: 82°   Ceiling: 1500
Heat Index: 89°   Visibility: 6mi
Dew Point: 75°   Wind: 23mph
Humidity: 79%   Direction: 330°NNW
Pressure: 29.71"   Gusts: NA
Location:  23.89°S, 55.43°W
Report Text: SBPP 211600Z 33020KT 9999 BKN015 28/24 Q1006
Loading
Personal Weather Stations






























Interactive Weather Map New forecast layout! Learn more

10-Day Weather Forecast

Advertisements
Track Severe Weather on mobile